Arminto, WY (82630)

1:32 PM MDT on August 28, 2015 (GMT -0600)
Natrona County International | | Change Station
CLOSE
Current Station
Airport
Location: Casper,
Elevation: 5289 ft
Nearby Weather Stations
Active Advisory: Fire Weather Warning

Elev 5289 ft 42.90 °N, 106.47 °W | Updated 39 minutes ago

Clear
Clear
80 °F
Feels Like 80 °F
N
9
Wind Variable Wind from SW

Today
High -- | Low -- °F
--% Chance of Precip.
Yesterday
High -- | Low -- °F
Precip. -- in
6:29 AM 7:51 PM
Waxing Gibbous, 99% visible
Pressure 30.04 in
Visibility 8.0 miles
Clouds Clear
Dew Point 41 °F
Humidity 25%
Rainfall 0.00 in
Snow Depth Not available.
UV 10 out of 12
Pollen 9.40 out of 12
Air Quality Not available.
Flu Activity Not available.
METAR KCPR 281853Z 23008KT 8SM CLR 27/05 A3024 RMK AO2 SLP172 T02670050
Pressure 30.04 in
Visibility 8.0 miles
Clouds Clear
Dew Point 41 °F
Humidity 25%
Rainfall 0.00 in
Snow Depth Not available.
UV 10 out of 12
Pollen 9.40 out of 12
Air Quality Not available.
Flu Activity Not available.
METAR KCPR 281853Z 23008KT 8SM CLR 27/05 A3024 RMK AO2 SLP172 T02670050

10-Day Weather Forecast

×

Almanac

Astronomy

Aug. 28, 2015 Rise Set
Actual Time
Civil Twilight
Nautical Twilight
Astronomical Twilight
Moon
Length of Visible Light
Length of Day
Tomorrow will be .
, % of the Moon is Illuminated

Today's Extremes

State Highs State Lows

Community

WunderPhotos

Upload Photos

1,850,464 photos uploaded!

WunderBlogs® & News

Nearby

Air Quality

  Air Quality AQ Index Pollutant
Not available.

Snow Depth

Station Depth Elevation

Earthquake Activity

City Distance Mag. Time & Date
Minimum magnitude displayed is 2.5.

Coastal Water Temperatures

Place Temperature

Stations

Nearby Weather Stations

Station Location Temp. Windchill Dew Point Humidity Wind Precip. Elev Updated Type
                   
Fire Weather Warning
Statement as of 11:58 AM MDT on August 28, 2015

... Red flag warning in effect from 11 am Saturday to 9 PM MDT
Sunday for strong wind... low humidity... dry thunderstorms... Haines
index of 6...

The National Weather Service in Riverton has issued a red flag
warning... which is in effect from 11 am Saturday to 9 PM MDT
Sunday. The Fire Weather Watch is no longer in effect.

* Wind... southwest 15 to 25 mph... gusting up to 40 mph on Sunday
afternoon becoming west-northwest 20 to 30 mph around sunset
on Sunday night behind a dry cold front.

* Humidity... 7 to 15 percent

* thunderstorms... isolated to widely scattered dry thunderstorms
on Sunday

* Haines index... 6 on Saturday afternoon... 5 on Sunday.

* Impacts... any fires that develop will likely spread rapidly.
Outdoor burning is not recommended.

Precautionary/preparedness actions...

A red flag warning means that critical fire weather conditions
are either occurring now... or will shortly. A combination of
strong winds... low relative humidity... and warm temperatures will
create extreme fire behavior.